createdAt,value
2023-01-15T02:35:52.084Z,27.20
2023-01-15T02:40:49.536Z,37.00
2023-01-15T02:43:17.154Z,33.20
2023-01-15T02:45:45.797Z,32.10
2023-01-15T02:48:13.965Z,34.30
2023-01-15T02:50:44.066Z,35.20
2023-01-15T02:53:13.809Z,32.90
2023-01-15T02:55:42.707Z,43.20
2023-01-15T02:58:14.566Z,38.00
2023-01-15T03:00:43.712Z,42.90
2023-01-15T03:03:29.285Z,34.70
2023-01-15T03:06:01.613Z,42.70
2023-01-15T03:08:28.248Z,40.80
2023-01-15T03:11:11.270Z,38.40
2023-01-15T03:14:05.452Z,37.10
2023-01-15T03:16:39.602Z,37.10
2023-01-15T03:19:26.739Z,35.20
2023-01-15T03:22:09.168Z,34.30
2023-01-15T03:24:41.117Z,38.30
2023-01-15T03:27:08.436Z,32.40
2023-01-15T03:29:40.484Z,35.20
2023-01-15T03:32:06.928Z,32.10
2023-01-15T03:34:45.245Z,35.90
2023-01-15T03:37:15.219Z,34.90
2023-01-15T03:39:42.046Z,36.40
2023-01-15T03:42:31.202Z,38.00
2023-01-15T03:45:10.313Z,41.60
2023-01-15T03:47:41.759Z,41.70
2023-01-15T03:50:12.150Z,37.70
2023-01-15T03:53:12.512Z,46.80
2023-01-15T03:55:53.420Z,42.30
2023-01-15T03:58:47.700Z,40.50
2023-01-15T04:01:18.948Z,41.00
2023-01-15T04:03:47.907Z,43.40
2023-01-15T04:06:14.550Z,37.40
2023-01-15T04:08:42.358Z,46.00
2023-01-15T04:11:09.246Z,66.70
2023-01-15T04:13:46.627Z,71.70
2023-01-15T04:16:29.725Z,53.80
2023-01-15T06:53:57.093Z,61.20
2023-01-15T06:56:24.066Z,60.50
2023-01-15T06:58:50.739Z,61.80
2023-01-15T07:01:17.533Z,59.20
2023-01-15T07:03:44.511Z,60.80
2023-01-15T07:06:12.868Z,70.20
2023-01-15T07:08:39.679Z,73.30
2023-01-15T07:11:07.807Z,69.10
2023-01-15T07:13:34.663Z,66.60
2023-01-15T07:16:01.873Z,56.20
2023-01-15T07:18:29.550Z,68.70
2023-01-15T07:20:57.400Z,54.60
2023-01-15T07:23:27.389Z,57.80
2023-01-15T07:25:54.247Z,71.60
2023-01-15T07:28:21.808Z,63.90
2023-01-15T07:30:48.658Z,67.60
2023-01-15T07:33:15.433Z,68.30
2023-01-15T07:35:42.440Z,58.20
2023-01-15T07:38:09.233Z,58.30
2023-01-15T07:40:36.111Z,52.70
2023-01-15T07:43:21.535Z,53.40
2023-01-15T07:46:06.910Z,57.00
2023-01-15T07:48:52.298Z,65.70
2023-01-15T07:51:19.136Z,49.00
2023-01-15T07:53:45.783Z,47.40
2023-01-15T07:56:12.831Z,61.90
2023-01-15T07:58:39.601Z,66.60
2023-01-15T08:01:06.535Z,70.10
2023-01-15T08:03:33.262Z,60.00
2023-01-15T08:06:00.100Z,55.70
2023-01-15T08:08:26.817Z,57.30
2023-01-15T08:11:12.220Z,48.00
2023-01-15T08:13:57.648Z,49.60
2023-01-15T08:16:24.573Z,46.80
2023-01-15T08:18:51.381Z,62.30
2023-01-15T08:21:18.270Z,66.10
2023-01-15T08:23:46.676Z,57.50
2023-01-15T08:26:13.696Z,63.20
2023-01-15T08:28:40.452Z,58.10
2023-01-15T08:31:08.600Z,72.70
2023-01-15T08:33:35.608Z,56.70
2023-01-15T08:36:03.157Z,70.00
2023-01-15T08:38:29.960Z,82.30
2023-01-15T08:40:59.518Z,56.00
2023-01-15T08:43:31.682Z,56.50
2023-01-15T08:45:59.561Z,69.90
2023-01-15T08:48:26.737Z,73.50
2023-01-15T08:50:53.518Z,87.20
2023-01-15T08:53:20.390Z,75.20
2023-01-15T08:55:48.013Z,75.80
2023-01-15T08:58:15.508Z,100.00
2023-01-15T09:00:42.209Z,73.70
2023-01-15T09:03:08.969Z,54.00
2023-01-15T09:05:37.523Z,52.30
2023-01-15T09:08:05.922Z,50.40
2023-01-15T09:10:33.185Z,47.70
2023-01-15T09:13:01.382Z,45.00
2023-01-15T09:15:29.085Z,36.20
2023-01-15T09:17:56.568Z,49.80
2023-01-15T09:20:23.332Z,61.20
2023-01-15T09:36:54.656Z,46.50
2023-01-15T09:39:21.404Z,45.80
2023-01-15T09:42:15.827Z,41.20
2023-01-15T09:45:13.914Z,43.30
2023-01-15T09:47:47.031Z,42.50
2023-01-15T09:50:36.001Z,39.70
2023-01-15T09:53:10.728Z,42.50
2023-01-15T09:55:43.962Z,39.10
2023-01-15T09:58:10.674Z,40.50
2023-01-15T10:00:43.848Z,35.70
2023-01-15T10:03:10.474Z,39.50
2023-01-15T10:05:41.833Z,38.30
2023-01-15T16:30:57.561Z,27.20
2023-01-15T16:33:25.933Z,26.70
2023-01-15T16:35:59.199Z,28.20
2023-01-15T16:38:25.918Z,32.40
2023-01-15T16:40:52.521Z,33.10
2023-01-15T16:43:21.833Z,25.80
2023-01-15T16:45:56.594Z,35.00
2023-01-15T16:48:37.546Z,32.60
2023-01-15T16:51:27.722Z,31.00
2023-01-15T16:53:54.243Z,28.80
2023-01-15T16:56:39.173Z,28.80
2023-01-15T16:59:16.763Z,26.40
2023-01-15T17:01:46.767Z,28.90
2023-01-15T17:04:35.185Z,32.10
2023-01-15T17:07:06.731Z,31.40
2023-01-15T17:09:36.035Z,28.70
2023-01-15T17:12:08.383Z,33.40
2023-01-15T17:14:34.863Z,26.70
2023-01-15T17:17:15.513Z,30.70
2023-01-15T17:19:42.344Z,27.60
2023-01-15T17:22:35.034Z,28.90
2023-01-15T17:25:01.861Z,32.10
2023-01-15T17:27:29.090Z,31.50
2023-01-15T17:29:55.900Z,38.90
2023-01-15T17:32:30.090Z,32.50
2023-01-15T17:34:56.879Z,50.00
2023-01-15T17:37:23.397Z,39.00
2023-01-15T17:39:51.807Z,44.50
2023-01-15T17:42:18.878Z,47.10
2023-01-15T17:44:45.491Z,43.90
2023-01-15T17:47:13.260Z,34.20
2023-01-15T17:49:40.145Z,31.70
2023-01-15T17:52:07.877Z,29.70
2023-01-15T17:54:54.017Z,30.00
2023-01-15T17:57:39.039Z,34.30
2023-01-15T18:00:24.483Z,35.00
